createdAt,value
2019-03-11T00:00:31.077Z,2.10
2019-03-11T00:01:31.083Z,2.40
2019-03-11T00:02:31.101Z,2.50
2019-03-11T00:03:31.057Z,2.30
2019-03-11T00:04:31.038Z,2.70
2019-03-11T00:05:31.217Z,2.60
2019-03-11T00:06:31.030Z,1.00
2019-03-11T00:07:31.022Z,1.50
2019-03-11T00:08:31.025Z,1.80
2019-03-11T00:09:31.014Z,2.50
2019-03-11T00:10:31.016Z,1.60
2019-03-11T00:11:30.975Z,3.20
2019-03-11T00:12:30.974Z,2.00
2019-03-11T00:13:30.979Z,2.80
2019-03-11T00:14:30.966Z,0.90
2019-03-11T00:15:30.959Z,0.90
2019-03-11T00:16:30.937Z,1.20
2019-03-11T00:17:30.957Z,2.10
2019-03-11T00:18:30.921Z,1.20
2019-03-11T00:19:30.930Z,1.70
2019-03-11T00:20:30.913Z,1.30
2019-03-11T00:21:30.926Z,2.60
2019-03-11T00:22:30.886Z,2.40
2019-03-11T00:23:30.883Z,1.60
2019-03-11T00:24:30.905Z,2.70
2019-03-11T00:25:30.871Z,1.40
2019-03-11T00:26:30.878Z,1.80
2019-03-11T00:27:30.879Z,1.30
2019-03-11T00:28:30.862Z,1.70
2019-03-11T00:29:30.842Z,2.80
2019-03-11T00:30:30.839Z,1.50
2019-03-11T00:31:30.849Z,1.50
2019-03-11T00:32:30.823Z,2.10
2019-03-11T00:33:30.826Z,1.10
2019-03-11T00:34:30.822Z,1.00
2019-03-11T00:35:30.817Z,1.30
2019-03-11T00:36:30.787Z,1.30
2019-03-11T00:37:30.794Z,1.50
2019-03-11T00:38:30.785Z,1.70
2019-03-11T00:39:30.764Z,2.60
2019-03-11T00:40:30.768Z,2.60
2019-03-11T00:41:30.749Z,2.10
2019-03-11T00:42:30.760Z,1.20
2019-03-11T00:43:30.728Z,1.50
2019-03-11T00:44:30.777Z,1.50
2019-03-11T00:45:30.724Z,1.20
2019-03-11T00:46:30.715Z,1.50
2019-03-11T00:47:30.718Z,0.80
2019-03-11T00:48:30.701Z,1.00
2019-03-11T00:49:30.685Z,1.60
2019-03-11T00:50:30.740Z,1.20
2019-03-11T00:51:30.663Z,2.50
2019-03-11T00:52:30.781Z,0.80
2019-03-11T00:53:30.702Z,0.70
2019-03-11T00:54:30.656Z,0.70
2019-03-11T00:55:30.642Z,1.70
2019-03-11T00:56:30.642Z,0.70
2019-03-11T00:57:30.621Z,0.80
2019-03-11T00:58:30.664Z,1.20
2019-03-11T00:59:30.632Z,1.30
2019-03-11T01:00:30.612Z,1.60
2019-03-11T01:01:30.638Z,2.00
2019-03-11T01:02:30.590Z,2.10
2019-03-11T01:03:30.587Z,1.00
2019-03-11T01:04:30.598Z,1.20
2019-03-11T01:05:30.574Z,1.10
2019-03-11T01:06:30.552Z,1.20
2019-03-11T01:07:30.746Z,1.20
2019-03-11T01:08:30.589Z,1.20
2019-03-11T01:09:30.583Z,1.30
2019-03-11T01:10:30.521Z,1.20
2019-03-11T01:11:30.530Z,1.40
2019-03-11T01:12:30.507Z,1.00
2019-03-11T01:13:30.502Z,1.30
2019-03-11T01:14:30.489Z,1.00
2019-03-11T01:15:30.485Z,0.90
2019-03-11T01:16:30.492Z,1.10
2019-03-11T01:17:30.483Z,1.60
2019-03-11T01:18:30.449Z,1.00
2019-03-11T01:19:30.669Z,1.00
2019-03-11T01:20:30.470Z,1.20
2019-03-11T01:21:30.451Z,1.90
2019-03-11T01:22:30.433Z,2.00
2019-03-11T01:23:30.414Z,1.90
2019-03-11T01:24:30.418Z,1.40
2019-03-11T01:25:30.457Z,1.20
2019-03-11T01:26:30.397Z,0.80
2019-03-11T01:27:30.394Z,0.90
2019-03-11T01:28:30.400Z,1.40
2019-03-11T01:29:30.366Z,1.70
2019-03-11T01:30:30.358Z,1.80
2019-03-11T01:31:30.341Z,2.40
2019-03-11T01:32:30.383Z,3.00
2019-03-11T01:33:30.329Z,4.00
2019-03-11T01:34:30.373Z,2.90
2019-03-11T01:35:30.309Z,3.30
2019-03-11T01:36:30.313Z,3.30
2019-03-11T01:37:30.323Z,2.30
2019-03-11T01:38:30.292Z,2.70
2019-03-11T01:39:30.292Z,1.80
2019-03-11T01:40:30.278Z,2.70
2019-03-11T01:41:30.270Z,2.00
2019-03-11T01:42:30.261Z,1.70
2019-03-11T01:43:30.264Z,2.00
2019-03-11T01:44:30.255Z,1.90
2019-03-11T01:45:30.230Z,2.40
2019-03-11T01:46:30.244Z,1.10
2019-03-11T01:47:30.221Z,1.30
2019-03-11T01:48:30.258Z,2.20
2019-03-11T01:49:30.221Z,2.00
2019-03-11T01:50:30.211Z,1.40
2019-03-11T01:51:30.181Z,1.50
2019-03-11T01:52:30.186Z,1.30
2019-03-11T01:53:30.199Z,1.00
2019-03-11T01:54:30.185Z,1.10
2019-03-11T01:55:30.163Z,1.30
2019-03-11T01:56:30.176Z,1.50
2019-03-11T01:57:30.147Z,1.30
2019-03-11T01:58:30.131Z,2.30
2019-03-11T01:59:30.122Z,1.60
2019-03-11T02:00:30.123Z,0.70
2019-03-11T02:01:30.123Z,0.90
2019-03-11T02:02:30.293Z,0.90
2019-03-11T02:03:30.095Z,1.20
2019-03-11T02:04:30.078Z,0.90
2019-03-11T02:05:30.082Z,0.90
2019-03-11T02:06:30.066Z,1.00
2019-03-11T02:07:30.066Z,1.20
2019-03-11T02:08:30.061Z,1.60
2019-03-11T02:09:30.056Z,1.00
2019-03-11T02:10:30.039Z,0.90
2019-03-11T02:11:30.025Z,1.70
2019-03-11T02:12:30.044Z,1.30
2019-03-11T02:13:30.011Z,1.60
2019-03-11T02:14:30.021Z,1.80
2019-03-11T02:15:30.040Z,0.90
2019-03-11T02:16:29.986Z,1.10
2019-03-11T02:17:30.022Z,1.70
2019-03-11T02:18:29.965Z,2.50
2019-03-11T02:19:29.963Z,1.10
2019-03-11T02:20:29.949Z,1.10
2019-03-11T02:21:29.923Z,1.10
2019-03-11T02:22:29.936Z,1.10
2019-03-11T02:23:29.915Z,1.00
2019-03-11T02:24:29.907Z,1.40
2019-03-11T02:25:29.896Z,1.40
2019-03-11T02:26:29.889Z,1.10
2019-03-11T02:27:29.905Z,1.20
2019-03-11T02:28:29.897Z,1.50
2019-03-11T02:29:29.890Z,2.80
2019-03-11T02:30:29.924Z,1.80
2019-03-11T02:31:29.908Z,2.50
2019-03-11T02:32:29.901Z,1.10
2019-03-11T02:33:29.840Z,1.10
2019-03-11T02:34:29.844Z,1.90
2019-03-11T02:35:29.845Z,1.30
2019-03-11T02:36:29.859Z,1.10
2019-03-11T02:37:29.837Z,1.10
2019-03-11T02:38:29.797Z,1.10
2019-03-11T02:39:29.839Z,0.90
2019-03-11T02:40:29.801Z,1.20
2019-03-11T02:41:29.816Z,1.10
2019-03-11T02:42:29.772Z,0.70
2019-03-11T02:43:29.771Z,0.60
2019-03-11T02:44:29.745Z,0.70
2019-03-11T02:45:29.754Z,0.60
2019-03-11T02:46:29.752Z,1.00
2019-03-11T02:47:29.737Z,0.70
2019-03-11T02:48:29.714Z,0.80
2019-03-11T02:49:29.707Z,0.70
2019-03-11T02:50:29.698Z,0.80
2019-03-11T02:51:29.697Z,0.60
2019-03-11T02:52:29.669Z,0.70
2019-03-11T02:53:29.666Z,0.80
2019-03-11T02:54:29.685Z,0.70
2019-03-11T02:55:29.664Z,0.90
2019-03-11T02:56:29.659Z,0.80
2019-03-11T02:57:29.647Z,0.50
2019-03-11T02:58:29.625Z,0.70
2019-03-11T02:59:29.677Z,0.90
2019-03-11T03:00:29.613Z,0.60
2019-03-11T03:01:29.624Z,0.90
2019-03-11T03:02:29.599Z,0.50
2019-03-11T03:03:29.618Z,0.50
2019-03-11T03:04:29.578Z,0.70
2019-03-11T03:05:29.593Z,0.50
2019-03-11T03:06:29.572Z,0.50
2019-03-11T03:07:29.563Z,0.50
2019-03-11T03:08:29.555Z,0.60
2019-03-11T03:09:31.841Z,0.50
2019-03-11T03:10:29.535Z,0.90
2019-03-11T03:11:29.524Z,1.00
2019-03-11T03:12:29.505Z,0.80
2019-03-11T03:13:29.517Z,1.10
2019-03-11T03:14:29.487Z,1.40
2019-03-11T03:15:29.503Z,0.70
2019-03-11T03:16:29.466Z,0.80
2019-03-11T03:17:29.480Z,0.80
2019-03-11T03:18:29.477Z,0.80
2019-03-11T03:19:29.460Z,1.00
2019-03-11T03:20:29.434Z,1.00
2019-03-11T03:21:29.443Z,0.80
2019-03-11T03:22:29.437Z,0.80
2019-03-11T03:23:29.415Z,0.80
2019-03-11T03:24:29.391Z,0.80
2019-03-11T03:25:34.480Z,0.60
2019-03-11T03:26:29.398Z,0.70
2019-03-11T03:27:29.383Z,0.80
2019-03-11T03:28:29.373Z,0.70
2019-03-11T03:29:29.363Z,0.80
2019-03-11T03:30:29.396Z,1.00
2019-03-11T03:31:29.353Z,2.20
2019-03-11T03:32:29.353Z,0.80
2019-03-11T03:33:29.339Z,0.80
2019-03-11T03:34:29.346Z,1.50
2019-03-11T03:35:29.315Z,0.90
2019-03-11T03:36:29.299Z,0.80
2019-03-11T03:37:29.293Z,1.10
2019-03-11T03:38:31.268Z,0.70
2019-03-11T03:39:29.280Z,0.80
2019-03-11T03:40:29.323Z,0.90
2019-03-11T03:41:29.252Z,0.80
2019-03-11T03:42:29.247Z,0.80
2019-03-11T03:43:29.242Z,1.40
2019-03-11T03:44:29.410Z,1.70
2019-03-11T03:45:29.242Z,1.60
2019-03-11T03:46:29.206Z,2.70
2019-03-11T03:47:29.225Z,1.60
2019-03-11T03:48:29.316Z,1.70
2019-03-11T03:49:29.196Z,1.60
2019-03-11T03:50:29.191Z,1.30
2019-03-11T03:51:29.173Z,1.20
2019-03-11T03:52:29.182Z,1.50
2019-03-11T03:53:29.165Z,0.90
2019-03-11T03:54:29.161Z,1.00
2019-03-11T03:55:29.154Z,0.80
2019-03-11T03:56:29.119Z,1.00
2019-03-11T03:57:29.108Z,1.30
2019-03-11T03:58:29.128Z,1.20
2019-03-11T03:59:29.111Z,1.40
2019-03-11T04:00:29.102Z,1.40
2019-03-11T04:01:29.201Z,1.20
2019-03-11T04:02:29.083Z,1.30
2019-03-11T04:03:29.085Z,1.40
2019-03-11T04:04:29.068Z,1.10
2019-03-11T04:05:29.085Z,1.00
2019-03-11T04:06:29.024Z,0.90
2019-03-11T04:07:29.016Z,1.30
2019-03-11T04:08:29.074Z,0.70
2019-03-11T04:09:29.024Z,0.80
2019-03-11T04:10:32.343Z,1.00
2019-03-11T04:11:28.998Z,0.90
2019-03-11T04:12:28.979Z,1.00
2019-03-11T04:13:28.988Z,0.90
2019-03-11T04:14:28.994Z,1.00
2019-03-11T04:15:29.075Z,1.20
2019-03-11T04:16:28.960Z,1.10
2019-03-11T04:17:28.961Z,1.20
2019-03-11T04:18:28.935Z,1.30
2019-03-11T04:19:29.672Z,1.50
2019-03-11T04:20:28.923Z,1.50
2019-03-11T04:21:28.928Z,1.70
2019-03-11T04:22:28.909Z,1.60
2019-03-11T04:23:28.890Z,1.10
2019-03-11T04:24:28.907Z,1.40
2019-03-11T04:25:28.892Z,2.00
2019-03-11T04:26:28.881Z,1.50
2019-03-11T04:27:28.884Z,1.20
2019-03-11T04:28:28.861Z,1.40
2019-03-11T04:29:28.848Z,2.80
2019-03-11T04:30:28.840Z,3.80
2019-03-11T04:31:28.842Z,4.60
2019-03-11T04:32:28.811Z,3.20
2019-03-11T04:33:28.816Z,1.90
2019-03-11T04:34:28.807Z,2.20
2019-03-11T04:35:28.852Z,1.40
2019-03-11T04:36:28.865Z,1.50
2019-03-11T04:37:28.778Z,1.50
2019-03-11T04:38:28.764Z,1.20
2019-03-11T04:39:28.759Z,1.00
2019-03-11T04:40:28.754Z,0.90
2019-03-11T04:41:28.759Z,0.80
2019-03-11T04:42:28.780Z,1.00
2019-03-11T04:43:28.727Z,1.30
2019-03-11T04:44:28.696Z,1.50
2019-03-11T04:45:28.697Z,1.30
2019-03-11T04:46:28.698Z,1.20
2019-03-11T04:47:28.688Z,1.30
2019-03-11T04:48:28.687Z,1.20
2019-03-11T04:49:28.662Z,1.10
2019-03-11T04:50:28.676Z,1.20
2019-03-11T04:51:28.669Z,1.20
2019-03-11T04:52:28.639Z,1.10
2019-03-11T04:53:28.660Z,0.90
2019-03-11T04:54:28.673Z,0.80
2019-03-11T04:55:28.629Z,0.90
2019-03-11T04:56:28.618Z,0.80
2019-03-11T04:57:28.613Z,0.90
2019-03-11T04:58:28.605Z,0.80
2019-03-11T04:59:28.594Z,0.90
2019-03-11T05:00:28.580Z,0.80
2019-03-11T05:01:28.556Z,1.50
2019-03-11T05:02:28.550Z,0.80
2019-03-11T05:03:28.571Z,0.70
2019-03-11T05:04:28.556Z,0.70
2019-03-11T05:05:28.536Z,0.80
2019-03-11T05:06:28.515Z,0.70
2019-03-11T05:07:28.524Z,0.80
2019-03-11T05:08:28.556Z,0.70
2019-03-11T05:09:28.608Z,0.70
2019-03-11T05:10:28.499Z,0.70
2019-03-11T05:11:28.527Z,0.70
2019-03-11T05:12:28.468Z,1.10
2019-03-11T05:13:28.507Z,0.60
2019-03-11T05:14:28.470Z,0.70
2019-03-11T05:15:28.495Z,0.60
2019-03-11T05:16:28.434Z,0.70
2019-03-11T05:17:28.482Z,0.70
2019-03-11T05:18:28.480Z,0.70
2019-03-11T05:19:28.444Z,0.70
2019-03-11T05:20:28.442Z,1.20
2019-03-11T05:21:28.406Z,0.70
2019-03-11T05:22:28.449Z,0.80
2019-03-11T05:23:28.399Z,0.70
2019-03-11T05:24:28.376Z,1.00
2019-03-11T05:25:28.372Z,0.90
2019-03-11T05:26:28.362Z,1.10
2019-03-11T05:27:28.352Z,1.00
2019-03-11T05:28:28.384Z,0.80
2019-03-11T05:29:28.314Z,0.70
2019-03-11T05:30:28.374Z,0.80
2019-03-11T05:31:28.374Z,0.70
2019-03-11T05:32:28.308Z,0.70
2019-03-11T05:33:28.305Z,1.40
2019-03-11T05:34:28.305Z,0.60
2019-03-11T05:35:28.288Z,0.70
2019-03-11T05:36:28.325Z,0.70
2019-03-11T05:37:28.265Z,0.60
2019-03-11T05:38:28.313Z,0.70
2019-03-11T05:39:28.252Z,0.80
2019-03-11T05:40:28.240Z,0.80
2019-03-11T05:41:28.227Z,0.90
2019-03-11T05:42:28.260Z,0.80
2019-03-11T05:43:28.219Z,1.60
2019-03-11T05:44:28.198Z,1.10
2019-03-11T05:45:28.197Z,1.20
2019-03-11T05:46:28.179Z,1.50
2019-03-11T05:47:28.177Z,1.50
2019-03-11T05:48:28.183Z,1.80
2019-03-11T05:49:28.160Z,1.30
2019-03-11T05:50:28.144Z,1.60
2019-03-11T05:51:31.954Z,1.60
2019-03-11T05:52:28.147Z,1.60
2019-03-11T05:53:28.137Z,1.60
2019-03-11T05:54:28.117Z,1.50
2019-03-11T05:55:28.155Z,1.80
2019-03-11T05:56:28.103Z,1.60
2019-03-11T05:57:28.139Z,2.00
2019-03-11T05:58:28.102Z,2.70
2019-03-11T05:59:28.096Z,2.60
2019-03-11T06:00:28.062Z,2.50
2019-03-11T06:01:28.052Z,2.60
2019-03-11T06:02:28.048Z,2.90
2019-03-11T06:03:28.038Z,1.90
2019-03-11T06:04:28.039Z,2.00
2019-03-11T06:05:28.042Z,2.50
2019-03-11T06:06:28.027Z,2.20
2019-03-11T06:07:28.014Z,1.90
2019-03-11T06:08:28.018Z,1.80
2019-03-11T06:09:28.001Z,1.90
2019-03-11T06:10:27.974Z,1.70
2019-03-11T06:11:27.963Z,2.00
2019-03-11T06:12:27.977Z,1.70
2019-03-11T06:13:35.651Z,1.60
2019-03-11T06:14:27.931Z,2.00
2019-03-11T06:15:27.943Z,1.80
2019-03-11T06:16:27.930Z,1.80
2019-03-11T06:17:28.036Z,2.00
2019-03-11T06:18:27.907Z,1.60
2019-03-11T06:19:28.055Z,1.80
2019-03-11T06:20:27.923Z,1.90
2019-03-11T06:21:27.938Z,1.80
2019-03-11T06:22:27.874Z,1.80
2019-03-11T06:23:27.865Z,1.80
2019-03-11T06:24:30.364Z,2.20
2019-03-11T06:25:27.867Z,1.80
2019-03-11T06:26:27.836Z,1.80
2019-03-11T06:27:27.841Z,1.80
2019-03-11T06:28:27.821Z,1.70
2019-03-11T06:29:30.766Z,1.70
2019-03-11T06:30:27.919Z,1.90
2019-03-11T06:31:27.810Z,1.90
2019-03-11T06:32:27.795Z,1.80
2019-03-11T06:33:27.796Z,3.10
2019-03-11T06:34:27.788Z,1.60
2019-03-11T06:35:27.752Z,1.70
2019-03-11T06:36:27.757Z,1.90
2019-03-11T06:37:27.758Z,2.80
2019-03-11T06:38:27.755Z,2.20
2019-03-11T06:39:27.737Z,3.10
2019-03-11T06:40:27.729Z,3.00
2019-03-11T06:41:27.719Z,3.00
2019-03-11T06:42:27.706Z,1.80
2019-03-11T06:43:27.786Z,2.90
2019-03-11T06:44:27.680Z,3.30
2019-03-11T06:45:27.686Z,1.60
2019-03-11T06:46:27.672Z,2.20
2019-03-11T06:47:27.669Z,1.90
2019-03-11T06:48:27.650Z,2.00
2019-03-11T06:49:27.635Z,1.50
2019-03-11T06:50:27.641Z,1.60
2019-03-11T06:51:27.634Z,2.30
2019-03-11T06:52:27.814Z,1.30
2019-03-11T06:53:27.692Z,1.70
2019-03-11T06:54:27.612Z,1.70
2019-03-11T06:55:27.596Z,1.80
2019-03-11T06:56:27.596Z,2.30
2019-03-11T06:57:27.566Z,1.60
2019-03-11T06:58:27.575Z,1.70
2019-03-11T06:59:27.562Z,1.20
2019-03-11T07:00:27.557Z,1.30
2019-03-11T07:01:27.556Z,1.20
2019-03-11T07:02:27.537Z,1.30
2019-03-11T07:03:27.506Z,1.20
2019-03-11T07:04:27.506Z,2.00
2019-03-11T07:05:27.502Z,1.40
2019-03-11T07:06:27.505Z,1.60
2019-03-11T07:07:27.480Z,1.60
2019-03-11T07:08:27.466Z,1.80
2019-03-11T07:09:27.574Z,2.00
2019-03-11T07:10:27.515Z,2.20
2019-03-11T07:11:27.454Z,2.70
2019-03-11T07:12:27.456Z,1.60
2019-03-11T07:13:27.439Z,2.00
2019-03-11T07:14:27.425Z,1.50
2019-03-11T07:15:27.412Z,2.50
2019-03-11T07:16:27.421Z,3.10
2019-03-11T07:17:27.447Z,2.20
2019-03-11T07:18:27.401Z,1.50
2019-03-11T07:19:27.391Z,1.80
2019-03-11T07:20:27.362Z,2.50
2019-03-11T07:21:27.368Z,3.40
2019-03-11T07:22:27.339Z,2.30
2019-03-11T07:23:27.363Z,1.90
2019-03-11T07:24:27.349Z,4.40
2019-03-11T07:25:27.334Z,4.00
2019-03-11T07:26:27.327Z,5.50
2019-03-11T07:27:27.775Z,3.40
2019-03-11T07:28:27.314Z,4.20
2019-03-11T07:29:27.304Z,3.90
2019-03-11T07:30:27.451Z,5.80
2019-03-11T07:31:27.293Z,3.10
2019-03-11T07:32:27.261Z,1.80
2019-03-11T07:33:27.262Z,4.30
2019-03-11T07:34:27.250Z,3.50
2019-03-11T07:35:27.231Z,3.70
2019-03-11T07:36:27.256Z,5.20
2019-03-11T07:37:27.221Z,5.10
2019-03-11T07:38:27.212Z,5.90
2019-03-11T07:39:27.205Z,2.70
2019-03-11T07:40:30.223Z,3.10
2019-03-11T07:41:27.192Z,4.90
2019-03-11T07:42:27.189Z,3.20
2019-03-11T07:43:27.184Z,6.00
2019-03-11T07:44:27.163Z,4.20
2019-03-11T07:45:27.170Z,6.90
2019-03-11T07:46:27.147Z,2.60
2019-03-11T07:47:27.132Z,4.30
2019-03-11T07:48:27.151Z,4.20
2019-03-11T07:49:27.136Z,3.30
2019-03-11T07:50:27.106Z,5.10
2019-03-11T07:51:27.105Z,2.10
2019-03-11T07:52:27.100Z,2.50
2019-03-11T07:53:27.101Z,4.50
2019-03-11T07:54:35.443Z,2.70
2019-03-11T07:55:27.065Z,4.20
2019-03-11T07:56:27.083Z,2.80
2019-03-11T07:57:27.067Z,2.50
2019-03-11T07:58:27.054Z,1.30
2019-03-11T07:59:27.026Z,1.90
2019-03-11T08:00:27.042Z,2.30
2019-03-11T08:01:27.031Z,3.40
2019-03-11T08:02:27.008Z,3.30
2019-03-11T08:03:26.987Z,2.00
2019-03-11T08:04:27.033Z,2.50
2019-03-11T08:05:26.988Z,2.40
2019-03-11T08:06:26.986Z,2.40
2019-03-11T08:07:27.597Z,2.50
2019-03-11T08:08:26.955Z,5.80
2019-03-11T08:09:37.200Z,2.90
2019-03-11T08:10:26.922Z,3.50
2019-03-11T08:11:26.918Z,4.90
2019-03-11T08:12:26.940Z,3.40
2019-03-11T08:13:26.906Z,2.40
2019-03-11T08:14:27.044Z,1.90
2019-03-11T08:15:26.894Z,2.80
2019-03-11T08:16:26.882Z,5.40
2019-03-11T08:17:26.924Z,4.40
2019-03-11T08:18:34.432Z,4.30
2019-03-11T08:19:26.841Z,3.90
2019-03-11T08:20:26.859Z,4.90
2019-03-11T08:21:26.851Z,2.80
2019-03-11T08:22:26.880Z,4.90
2019-03-11T08:23:26.831Z,5.70
2019-03-11T08:24:26.826Z,5.30
2019-03-11T08:25:26.824Z,3.80
2019-03-11T08:26:26.816Z,5.50
2019-03-11T08:27:26.833Z,3.50
2019-03-11T08:28:26.774Z,4.80
2019-03-11T08:29:26.780Z,3.20
2019-03-11T08:30:26.773Z,3.40
2019-03-11T08:31:26.762Z,3.30
2019-03-11T08:32:26.742Z,3.80
2019-03-11T08:33:26.727Z,5.00
2019-03-11T08:34:26.727Z,5.20
2019-03-11T08:35:26.714Z,5.20
2019-03-11T08:36:26.719Z,3.80
2019-03-11T08:37:26.702Z,2.80
2019-03-11T08:38:26.690Z,4.00
2019-03-11T08:39:26.694Z,4.10
2019-03-11T08:40:26.690Z,5.60
2019-03-11T08:41:26.717Z,4.20
2019-03-11T08:42:26.654Z,3.10
2019-03-11T08:43:26.660Z,2.50
2019-03-11T08:44:26.637Z,5.80
2019-03-11T08:45:26.644Z,5.40
2019-03-11T08:46:26.623Z,4.20
2019-03-11T08:47:26.614Z,4.80
2019-03-11T08:48:26.620Z,6.30
2019-03-11T08:49:26.596Z,4.70
2019-03-11T08:50:26.737Z,3.50
2019-03-11T08:51:26.635Z,5.50
2019-03-11T08:52:26.594Z,6.80
2019-03-11T08:53:26.551Z,5.70
2019-03-11T08:54:26.546Z,5.60
2019-03-11T08:55:26.534Z,4.50
2019-03-11T08:56:26.561Z,4.60
2019-03-11T08:57:26.532Z,2.90
2019-03-11T08:58:26.536Z,7.60
2019-03-11T08:59:26.518Z,5.40
2019-03-11T09:00:26.505Z,5.50
2019-03-11T09:01:26.499Z,3.80
2019-03-11T09:02:26.492Z,5.80
2019-03-11T09:03:26.478Z,4.50
2019-03-11T09:04:26.504Z,5.90
2019-03-11T09:05:26.465Z,3.90
2019-03-11T09:06:26.462Z,5.00
2019-03-11T09:07:26.434Z,3.20
2019-03-11T09:08:26.430Z,5.30
2019-03-11T09:09:26.768Z,5.20
2019-03-11T09:10:26.418Z,3.90
2019-03-11T09:11:26.404Z,5.80
2019-03-11T09:12:26.417Z,3.10
2019-03-11T09:13:26.397Z,5.00
2019-03-11T09:14:26.400Z,4.90
2019-03-11T09:15:26.366Z,6.10
2019-03-11T09:16:26.359Z,5.10
2019-03-11T09:17:26.348Z,4.30
2019-03-11T09:18:26.324Z,6.60
2019-03-11T09:19:26.354Z,3.30
2019-03-11T09:20:26.334Z,4.50
2019-03-11T09:21:26.305Z,5.10
2019-03-11T09:22:26.314Z,4.60
2019-03-11T09:23:26.340Z,6.00
2019-03-11T09:24:26.305Z,4.90
2019-03-11T09:25:26.325Z,4.70
2019-03-11T09:26:26.278Z,4.90
2019-03-11T09:27:26.272Z,5.90
2019-03-11T09:28:26.313Z,4.20
2019-03-11T09:29:26.283Z,3.70
2019-03-11T09:30:26.253Z,6.30
2019-03-11T09:31:26.220Z,4.30
2019-03-11T09:32:26.263Z,4.70
2019-03-11T09:33:26.211Z,5.30
2019-03-11T09:34:26.218Z,5.10
2019-03-11T09:35:26.204Z,4.10
2019-03-11T09:36:26.184Z,5.70
2019-03-11T09:37:26.164Z,4.70
2019-03-11T09:38:26.180Z,5.70
2019-03-11T09:39:26.171Z,6.70
2019-03-11T09:40:26.139Z,5.00
2019-03-11T09:41:26.152Z,5.50
2019-03-11T09:42:26.127Z,3.80
2019-03-11T09:43:27.138Z,3.30
2019-03-11T09:44:26.124Z,4.30
2019-03-11T09:45:26.103Z,5.50
2019-03-11T09:46:26.093Z,5.60
2019-03-11T09:47:26.107Z,2.60
2019-03-11T09:48:26.071Z,3.30
2019-03-11T09:49:26.089Z,6.90
2019-03-11T09:50:26.055Z,3.60
2019-03-11T09:51:26.064Z,4.60
2019-03-11T09:52:26.053Z,2.80
2019-03-11T09:53:26.038Z,6.10
2019-03-11T09:54:26.045Z,4.20
2019-03-11T09:55:26.008Z,5.40
2019-03-11T09:56:26.009Z,4.90
2019-03-11T09:57:25.989Z,3.90
2019-03-11T09:58:25.990Z,4.20
2019-03-11T09:59:26.000Z,4.80
2019-03-11T10:00:25.987Z,2.40
2019-03-11T10:01:25.968Z,4.40
2019-03-11T10:02:25.964Z,4.00
2019-03-11T10:03:25.949Z,3.20
2019-03-11T10:04:25.951Z,5.70
2019-03-11T10:05:25.930Z,3.10
2019-03-11T10:06:25.968Z,4.00
2019-03-11T10:07:25.915Z,2.90
2019-03-11T10:08:25.920Z,3.40
2019-03-11T10:09:25.905Z,6.40
2019-03-11T10:10:25.898Z,3.20
2019-03-11T10:11:25.926Z,2.70
2019-03-11T10:12:25.888Z,3.20
2019-03-11T10:13:27.654Z,4.30
2019-03-11T10:14:25.862Z,4.30
2019-03-11T10:15:25.849Z,8.20
2019-03-11T10:16:25.890Z,4.30
2019-03-11T10:17:25.848Z,7.60
2019-03-11T10:18:25.839Z,4.00
2019-03-11T10:19:25.819Z,3.80
2019-03-11T10:20:25.820Z,3.30
2019-03-11T10:21:25.809Z,5.50
2019-03-11T10:22:25.814Z,4.70
2019-03-11T10:23:32.031Z,3.50
2019-03-11T10:24:25.783Z,4.70
2019-03-11T10:25:25.769Z,5.60
2019-03-11T10:26:25.751Z,5.90
2019-03-11T10:27:25.754Z,6.00
2019-03-11T10:28:25.729Z,5.70
2019-03-11T10:29:25.741Z,4.20
2019-03-11T10:30:25.711Z,4.80
2019-03-11T10:31:25.716Z,6.20
2019-03-11T10:32:25.730Z,4.30
2019-03-11T10:33:25.755Z,4.30
2019-03-11T10:34:25.690Z,3.50
2019-03-11T10:35:33.068Z,3.90
2019-03-11T10:36:25.690Z,1.80
2019-03-11T10:37:25.664Z,2.80
2019-03-11T10:38:25.663Z,2.50
2019-03-11T10:39:25.660Z,3.60
2019-03-11T10:40:25.664Z,3.20
2019-03-11T10:41:25.632Z,3.80
2019-03-11T10:42:25.616Z,2.60
2019-03-11T10:43:25.622Z,2.80
2019-03-11T10:44:25.656Z,2.00
2019-03-11T10:45:31.019Z,2.70
2019-03-11T10:46:25.602Z,1.90
2019-03-11T10:47:25.631Z,3.80
2019-03-11T10:48:36.306Z,2.20
2019-03-11T10:49:25.553Z,1.90
2019-03-11T10:50:25.573Z,2.60
2019-03-11T10:51:25.558Z,2.70
2019-03-11T10:52:25.552Z,1.30
2019-03-11T10:53:25.546Z,2.90
2019-03-11T10:54:25.565Z,1.50
2019-03-11T10:55:25.571Z,1.30
2019-03-11T10:56:25.531Z,2.20
2019-03-11T10:57:25.498Z,3.10
2019-03-11T10:58:25.511Z,1.50
2019-03-11T10:59:25.531Z,2.00
2019-03-11T11:00:25.475Z,2.00
2019-03-11T11:01:25.476Z,2.10
2019-03-11T11:02:25.453Z,2.80
2019-03-11T11:03:25.434Z,3.10
2019-03-11T11:04:25.461Z,2.00
2019-03-11T11:05:25.445Z,2.80
2019-03-11T11:06:25.424Z,3.60
2019-03-11T11:07:25.410Z,2.30
2019-03-11T11:08:25.405Z,1.60
2019-03-11T11:09:25.398Z,3.50
2019-03-11T11:10:25.377Z,2.50
2019-03-11T11:11:25.390Z,3.50
2019-03-11T11:12:25.368Z,2.40
2019-03-11T11:13:25.358Z,3.80
2019-03-11T11:14:25.358Z,2.10
2019-03-11T11:15:25.348Z,2.20
2019-03-11T11:16:25.334Z,2.40
2019-03-11T11:17:25.332Z,2.40
2019-03-11T11:18:25.335Z,3.10
2019-03-11T11:19:25.366Z,3.50
2019-03-11T11:20:25.352Z,3.50
2019-03-11T11:21:25.318Z,2.10
2019-03-11T11:22:25.275Z,2.40
2019-03-11T11:23:25.291Z,2.70
2019-03-11T11:24:25.494Z,1.80
2019-03-11T11:25:25.272Z,1.60
2019-03-11T11:26:25.262Z,2.40
2019-03-11T11:27:25.250Z,2.50
2019-03-11T11:28:25.249Z,1.70
2019-03-11T11:29:25.245Z,1.80
2019-03-11T11:30:25.233Z,1.80
2019-03-11T11:31:25.200Z,1.90
2019-03-11T11:32:25.208Z,1.90
2019-03-11T11:33:25.213Z,1.60
2019-03-11T11:34:25.201Z,1.70
2019-03-11T11:35:25.230Z,1.60
2019-03-11T11:36:25.216Z,2.00
2019-03-11T11:37:25.165Z,2.60
2019-03-11T11:38:25.174Z,2.40
2019-03-11T11:39:25.163Z,2.80
2019-03-11T11:40:25.168Z,1.40
2019-03-11T11:41:25.124Z,2.20
2019-03-11T11:42:25.168Z,2.80
2019-03-11T11:43:25.115Z,1.90
2019-03-11T11:44:25.130Z,1.70
2019-03-11T11:45:25.116Z,3.90
2019-03-11T11:46:25.106Z,2.60
2019-03-11T11:47:25.095Z,2.70
2019-03-11T11:48:25.087Z,1.70
2019-03-11T11:49:25.068Z,4.00
2019-03-11T11:50:25.074Z,2.80
2019-03-11T11:51:25.059Z,3.40
2019-03-11T11:52:25.041Z,2.50
2019-03-11T11:53:25.377Z,2.30
2019-03-11T11:54:25.024Z,2.10
2019-03-11T11:55:25.095Z,3.00
2019-03-11T11:56:25.022Z,3.70
2019-03-11T11:57:25.016Z,2.20
2019-03-11T11:58:24.984Z,4.30
2019-03-11T11:59:24.998Z,3.00
2019-03-11T12:00:24.974Z,4.60
2019-03-11T12:01:24.955Z,4.60
2019-03-11T12:02:24.967Z,4.40
2019-03-11T12:03:24.966Z,2.20
2019-03-11T12:04:24.933Z,4.20
2019-03-11T12:05:24.951Z,3.80
2019-03-11T12:06:24.949Z,2.40
2019-03-11T12:07:24.990Z,5.00
2019-03-11T12:08:24.941Z,5.20
2019-03-11T12:09:24.923Z,3.40
2019-03-11T12:10:24.907Z,4.10
2019-03-11T12:11:24.912Z,5.10
2019-03-11T12:12:24.905Z,2.80
2019-03-11T12:13:24.876Z,4.40
2019-03-11T12:14:24.876Z,3.00
2019-03-11T12:15:24.879Z,2.30
2019-03-11T12:16:24.907Z,2.40
2019-03-11T12:17:24.863Z,6.30
2019-03-11T12:18:24.851Z,2.60
2019-03-11T12:19:24.843Z,4.00
2019-03-11T12:20:24.945Z,2.30
2019-03-11T12:21:24.812Z,2.40
2019-03-11T12:22:24.824Z,3.20
2019-03-11T12:23:24.810Z,3.70
2019-03-11T12:24:24.822Z,3.40
2019-03-11T12:25:24.788Z,3.10
2019-03-11T12:26:24.772Z,3.50
2019-03-11T12:27:24.777Z,1.90
2019-03-11T12:28:24.784Z,2.50
2019-03-11T12:29:24.759Z,1.60
2019-03-11T12:30:24.732Z,3.50
2019-03-11T12:31:24.739Z,3.80
2019-03-11T12:32:24.748Z,3.20
2019-03-11T12:33:24.724Z,2.80
2019-03-11T12:34:24.718Z,2.80
2019-03-11T12:35:24.701Z,3.90
2019-03-11T12:36:24.721Z,4.30
2019-03-11T12:37:26.535Z,3.50
2019-03-11T12:38:24.714Z,3.60
2019-03-11T12:39:24.682Z,5.50
2019-03-11T12:40:24.685Z,4.20
2019-03-11T12:41:24.674Z,2.30
2019-03-11T12:42:24.867Z,5.50
2019-03-11T12:43:24.665Z,4.90
2019-03-11T12:44:24.657Z,3.10
2019-03-11T12:45:24.641Z,4.60
2019-03-11T12:46:24.633Z,6.10
2019-03-11T12:47:24.620Z,3.40
2019-03-11T12:48:24.605Z,5.90
2019-03-11T12:49:24.591Z,3.50
2019-03-11T12:50:24.634Z,4.50
2019-03-11T12:51:24.603Z,3.80
2019-03-11T12:52:24.593Z,3.40
2019-03-11T12:53:24.590Z,3.70
2019-03-11T12:54:24.559Z,4.70
2019-03-11T12:55:24.557Z,4.80
2019-03-11T12:56:24.561Z,4.00
2019-03-11T12:57:24.540Z,6.20
2019-03-11T12:58:24.541Z,5.40
2019-03-11T12:59:24.540Z,3.70
2019-03-11T13:00:24.534Z,4.30
2019-03-11T13:01:24.507Z,2.60
2019-03-11T13:02:24.552Z,4.00
2019-03-11T13:03:24.496Z,2.30
2019-03-11T13:04:24.490Z,3.20
2019-03-11T13:05:24.487Z,4.00
2019-03-11T13:06:24.496Z,5.30
2019-03-11T13:07:24.482Z,5.70
2019-03-11T13:08:24.468Z,4.30
2019-03-11T13:09:24.475Z,3.40
2019-03-11T13:10:24.455Z,3.30
2019-03-11T13:11:24.481Z,4.90
2019-03-11T13:12:24.443Z,5.70
2019-03-11T13:13:24.435Z,3.70
2019-03-11T13:14:24.440Z,8.20
2019-03-11T13:15:24.436Z,5.10
2019-03-11T13:16:24.417Z,2.50
2019-03-11T13:17:24.410Z,3.00
2019-03-11T13:18:24.801Z,5.40